createdAt,value
2022-11-17T00:03:36.193Z,20.45
2022-11-17T00:08:41.757Z,20.42
2022-11-17T00:14:02.961Z,20.70
2022-11-17T00:19:24.394Z,21.23
2022-11-17T00:24:29.563Z,21.13
2022-11-17T00:29:35.320Z,19.77
2022-11-17T00:34:42.388Z,20.55
2022-11-17T00:39:47.636Z,21.30
2022-11-17T00:44:51.483Z,21.37
2022-11-17T00:49:55.258Z,20.23
2022-11-17T00:55:00.557Z,20.38
2022-11-17T01:00:05.028Z,20.57
2022-11-17T01:05:09.380Z,20.63
2022-11-17T01:10:14.956Z,21.95
2022-11-17T01:15:18.742Z,23.50
2022-11-17T01:20:22.849Z,21.33
2022-11-17T01:25:28.064Z,21.65
2022-11-17T01:30:31.842Z,23.70
2022-11-17T01:35:35.709Z,23.55
2022-11-17T01:40:40.907Z,23.15
2022-11-17T01:45:45.402Z,23.47
2022-11-17T01:50:49.674Z,23.92
2022-11-17T01:56:01.229Z,23.45
2022-11-17T02:01:05.116Z,24.33
2022-11-17T02:06:10.912Z,24.20
2022-11-17T02:11:18.657Z,22.83
2022-11-17T02:16:22.460Z,22.90
2022-11-17T02:22:17.018Z,22.67
2022-11-17T02:27:37.107Z,22.13
2022-11-17T02:32:47.481Z,24.02
2022-11-17T02:37:56.890Z,24.23
2022-11-17T02:43:20.509Z,21.95
2022-11-17T02:48:28.452Z,23.73
2022-11-17T02:53:32.473Z,24.08
2022-11-17T02:58:37.845Z,22.65
2022-11-17T03:03:51.353Z,18.30
2022-11-17T03:09:04.388Z,23.02
2022-11-17T03:14:12.443Z,24.20
2022-11-17T03:19:19.295Z,24.15
2022-11-17T03:24:24.842Z,25.35
2022-11-17T03:29:32.317Z,25.88
2022-11-17T03:34:38.539Z,24.98
2022-11-17T03:39:44.545Z,26.70
2022-11-17T03:44:52.686Z,24.95
2022-11-17T03:49:59.278Z,25.48
2022-11-17T03:55:03.967Z,25.27
2022-11-17T04:00:12.234Z,23.77
2022-11-17T04:05:19.566Z,26.35
2022-11-17T04:10:26.785Z,26.08
2022-11-17T04:20:54.319Z,26.10
2022-11-17T04:26:15.769Z,19.07
2022-11-17T04:31:24.531Z,23.63
2022-11-17T04:36:29.398Z,24.15
2022-11-17T04:41:50.656Z,23.60
2022-11-17T04:46:56.577Z,23.92
2022-11-17T04:52:00.386Z,23.90
2022-11-17T04:57:04.177Z,24.88
2022-11-17T05:02:09.551Z,24.70
2022-11-17T05:07:13.412Z,24.73
2022-11-17T05:12:37.205Z,25.60
2022-11-17T05:17:42.382Z,26.17
2022-11-17T05:23:06.831Z,21.67
2022-11-17T05:28:10.882Z,28.38
2022-11-17T05:33:16.023Z,28.50
2022-11-17T05:38:19.806Z,28.60
2022-11-17T05:43:23.603Z,29.27
2022-11-17T05:48:28.769Z,28.80
2022-11-17T05:53:33.180Z,24.00
2022-11-17T05:58:38.533Z,28.48
2022-11-17T06:03:47.786Z,27.60
2022-11-17T06:08:51.940Z,26.05
2022-11-17T06:13:55.773Z,28.08
2022-11-17T06:19:05.110Z,29.85
2022-11-17T06:24:09.914Z,27.17
2022-11-17T06:29:14.451Z,27.17
2022-11-17T06:34:19.627Z,27.65
2022-11-17T06:39:23.440Z,27.83
2022-11-17T06:44:27.242Z,30.67
2022-11-17T06:49:32.410Z,27.88
2022-11-17T06:54:36.260Z,28.60
2022-11-17T06:59:40.107Z,26.90
2022-11-17T07:04:45.355Z,27.58
2022-11-17T07:09:49.196Z,24.30
2022-11-17T07:14:53.005Z,25.42
2022-11-17T07:19:58.350Z,25.17
2022-11-17T07:25:02.263Z,25.47
2022-11-17T07:30:07.219Z,23.63
2022-11-17T07:35:12.562Z,23.50
2022-11-17T07:40:17.359Z,24.97
2022-11-17T07:45:21.332Z,24.45
2022-11-17T07:50:27.522Z,25.10
2022-11-17T07:55:31.414Z,23.60
2022-11-17T08:00:35.437Z,23.52
2022-11-17T08:05:43.579Z,23.75
2022-11-17T08:10:47.784Z,24.08
2022-11-17T08:15:57.353Z,25.45
2022-11-17T08:21:07.087Z,23.90
2022-11-17T08:26:12.716Z,23.60
2022-11-17T08:31:16.561Z,21.88
2022-11-17T08:36:21.843Z,23.25
2022-11-17T08:41:26.747Z,22.33
2022-11-17T08:46:30.579Z,20.75
2022-11-17T08:51:35.826Z,19.75
2022-11-17T08:56:39.822Z,18.30
2022-11-17T09:01:43.741Z,17.05
2022-11-17T09:06:48.891Z,17.92
2022-11-17T09:11:52.647Z,17.70
2022-11-17T09:16:56.459Z,16.92
2022-11-17T09:22:01.659Z,17.85
2022-11-17T09:27:05.644Z,14.10
2022-11-17T09:32:09.716Z,14.02
2022-11-17T09:37:14.973Z,14.40
2022-11-17T09:42:20.242Z,15.20
2022-11-17T09:47:27.735Z,14.77
2022-11-17T09:52:36.648Z,14.65
2022-11-17T09:57:42.723Z,14.95
2022-11-17T10:07:53.245Z,14.20
2022-11-17T10:12:58.998Z,14.70
2022-11-17T10:18:02.806Z,14.40
2022-11-17T10:23:08.485Z,15.27
2022-11-17T10:28:26.509Z,9.50
2022-11-17T10:33:39.073Z,10.57
2022-11-17T10:38:47.652Z,7.78
2022-11-17T10:43:59.268Z,7.75
2022-11-17T10:49:05.178Z,8.57
2022-11-17T10:59:30.647Z,8.70
2022-11-17T11:04:35.960Z,9.60
2022-11-17T11:09:46.087Z,8.87
2022-11-17T11:14:53.604Z,8.18
2022-11-17T11:19:58.011Z,9.10
2022-11-17T11:25:12.180Z,7.57
2022-11-17T11:30:18.560Z,8.40
2022-11-17T11:35:38.811Z,9.40
2022-11-17T11:40:46.063Z,10.77
2022-11-17T11:45:54.948Z,15.27
2022-11-17T11:50:59.959Z,17.92
2022-11-17T11:56:13.696Z,11.13
2022-11-17T12:01:19.052Z,22.35
2022-11-17T12:06:43.243Z,22.40
2022-11-17T12:12:01.744Z,22.15
2022-11-17T12:17:08.585Z,20.55
2022-11-17T12:22:13.773Z,22.00
2022-11-17T12:27:46.175Z,22.30
2022-11-17T12:32:53.718Z,23.00
2022-11-17T12:38:30.959Z,19.55
2022-11-17T12:43:36.203Z,16.63
2022-11-17T12:48:41.961Z,15.90
2022-11-17T12:53:55.499Z,16.85
2022-11-17T12:59:27.275Z,18.77
2022-11-17T13:04:36.106Z,18.90
2022-11-17T13:09:40.225Z,18.40
2022-11-17T13:14:55.535Z,17.38
2022-11-17T13:20:00.973Z,13.38
2022-11-17T13:25:18.879Z,13.15
2022-11-17T13:30:25.609Z,9.73
2022-11-17T13:35:31.215Z,9.48
2022-11-17T13:40:36.285Z,13.50
2022-11-17T13:45:43.353Z,9.35
2022-11-17T13:50:47.363Z,12.88
2022-11-17T13:55:51.701Z,12.55
2022-11-17T14:00:58.645Z,9.07
2022-11-17T14:06:03.142Z,9.52
2022-11-17T14:11:21.429Z,8.90
2022-11-17T14:16:29.312Z,13.85
2022-11-17T14:21:33.687Z,11.88
2022-11-17T14:26:42.679Z,9.68
2022-11-17T14:31:47.857Z,9.15
2022-11-17T14:36:54.414Z,9.57
2022-11-17T14:41:58.275Z,8.82
2022-11-17T14:47:03.575Z,8.55
2022-11-17T14:52:07.532Z,8.70
2022-11-17T14:57:11.440Z,8.32
2022-11-17T15:02:16.649Z,8.73
2022-11-17T15:07:20.545Z,8.43
2022-11-17T15:12:24.395Z,9.73
2022-11-17T15:17:29.735Z,14.05
2022-11-17T15:22:33.564Z,15.13
2022-11-17T15:27:37.392Z,16.00
2022-11-17T15:32:42.618Z,18.60
2022-11-17T15:37:46.447Z,18.90
2022-11-17T15:42:50.260Z,20.58
2022-11-17T15:47:55.479Z,22.27
2022-11-17T15:53:04.361Z,21.37
2022-11-17T15:58:08.655Z,25.35
2022-11-17T16:03:13.916Z,26.02
2022-11-17T16:08:17.989Z,27.90
2022-11-17T16:13:21.911Z,27.65
2022-11-17T16:18:27.166Z,32.15
2022-11-17T16:23:30.979Z,34.87
2022-11-17T16:28:34.982Z,37.05
2022-11-17T16:33:40.208Z,37.25
2022-11-17T16:38:59.896Z,36.57
2022-11-17T16:44:08.799Z,30.38
2022-11-17T16:49:15.855Z,24.30
2022-11-17T16:54:20.175Z,19.70
2022-11-17T16:59:23.963Z,18.00
2022-11-17T17:04:30.386Z,15.52
2022-11-17T17:09:34.183Z,14.32
2022-11-17T17:14:38.022Z,8.65
2022-11-17T17:19:43.267Z,7.53
2022-11-17T17:24:47.088Z,7.43
2022-11-17T17:29:54.628Z,7.57
2022-11-17T17:34:59.874Z,8.07
2022-11-17T17:40:04.171Z,7.47
2022-11-17T17:45:08.605Z,8.15
2022-11-17T17:50:13.783Z,7.22
2022-11-17T17:55:17.923Z,7.67
2022-11-17T18:00:22.118Z,7.90
2022-11-17T18:05:28.072Z,7.40
2022-11-17T18:10:31.935Z,7.82
2022-11-17T18:15:35.935Z,7.05
2022-11-17T18:20:41.152Z,7.30
2022-11-17T18:25:45.110Z,6.90
2022-11-17T18:30:48.939Z,7.20
2022-11-17T18:35:54.184Z,7.40
2022-11-17T18:41:03.863Z,8.00
2022-11-17T18:46:10.595Z,7.82
2022-11-17T18:51:19.843Z,7.78
2022-11-17T18:56:26.923Z,8.25
2022-11-17T19:01:31.668Z,8.45
2022-11-17T19:06:37.464Z,8.93
2022-11-17T19:11:41.557Z,8.82
2022-11-17T19:16:50.695Z,11.07
2022-11-17T19:21:56.032Z,9.65
2022-11-17T19:27:00.322Z,10.20
2022-11-17T19:32:04.183Z,12.85
2022-11-17T19:37:09.459Z,12.20
2022-11-17T19:42:13.315Z,11.23
2022-11-17T19:47:17.155Z,9.60
2022-11-17T19:52:22.548Z,8.88
2022-11-17T19:57:26.959Z,9.30
2022-11-17T20:02:30.831Z,8.75
2022-11-17T20:07:36.158Z,11.77
2022-11-17T20:12:41.443Z,10.07
2022-11-17T20:17:45.323Z,8.63
2022-11-17T20:22:50.785Z,11.95
2022-11-17T20:27:54.585Z,14.13
2022-11-17T20:32:59.046Z,12.30
2022-11-17T20:38:04.449Z,15.00
2022-11-17T20:43:08.283Z,15.90
2022-11-17T20:48:12.152Z,17.95
2022-11-17T20:53:17.382Z,17.63
2022-11-17T20:58:21.669Z,18.93
2022-11-17T21:03:25.790Z,18.90
2022-11-17T21:08:32.991Z,18.70
2022-11-17T21:13:38.174Z,18.73
2022-11-17T21:18:47.178Z,20.80
2022-11-17T21:23:54.356Z,21.75
2022-11-17T21:29:03.162Z,22.25
2022-11-17T21:34:16.065Z,25.13
2022-11-17T21:39:21.366Z,25.17
2022-11-17T21:44:25.183Z,26.83
2022-11-17T21:49:29.134Z,28.80
2022-11-17T21:54:37.290Z,31.92
2022-11-17T21:59:41.110Z,29.67
2022-11-17T22:04:44.955Z,32.90
2022-11-17T22:09:50.315Z,42.33
2022-11-17T22:14:54.287Z,44.20
2022-11-17T22:19:58.151Z,49.95
2022-11-17T22:25:37.661Z,58.63
2022-11-17T22:30:32.092Z,58.83
2022-11-17T22:35:37.768Z,66.20
2022-11-17T22:40:43.374Z,60.85
2022-11-17T22:45:47.195Z,63.58
2022-11-17T22:50:51.102Z,72.70
2022-11-17T22:55:56.316Z,83.72
2022-11-17T23:01:05.264Z,101.40
2022-11-17T23:06:09.374Z,112.25
2022-11-17T23:11:36.137Z,118.35
2022-11-17T23:16:38.921Z,114.28
2022-11-17T23:21:42.874Z,109.88
2022-11-17T23:26:48.330Z,112.13
2022-11-17T23:31:52.153Z,113.95
2022-11-17T23:37:00.836Z,129.25
2022-11-17T23:42:08.731Z,102.57
2022-11-17T23:47:12.602Z,107.50
2022-11-17T23:52:16.393Z,106.95
2022-11-17T23:57:21.603Z,116.63
